sim
Sign-in with your pilot id or email,
or register
Callsign
Passwort

Schedule Details

Flight Number: DLH1751
Departure: Athens Eleftherios Venizelos (LGAV) at 10:40
Arrival: Munich Airport (EDDM) at 13:15
Route: Lufthansa Passenger Schedule. Enter filed route here before submitting Pirep.

Weather Information
Getting current METAR information for LGAV 010250Z VRB01KT CAVOK 16/12 Q1010 NOSIG
Getting current METAR information for EDDM 010250Z 00000KT 0800 0400NE R08L/0400U R08R/1400U FG NSC 04/03 Q1010 BECMG 0500 BKN001

Schedule Frequency

Route Map